Time;durP1;ratioP1;P1;durP2;ratioP2;P2;SDS_P1;SDS_P2;PMS_P1;PMS_P2;Temp;Humidity;BMP_temperature;BMP_pressure;BME280_temperature;BME280_humidity;BME280_pressure;Samples;Min_cycle;Max_cycle;Signal;HPM_P1;HPM_P2
2022/06/15 00:00:52;;;;;;;3.50;1.80;;;12.80;99.90;;;;;;5060080;28;20052;-69
2022/06/15 00:03:18;;;;;;;3.03;1.88;;;12.70;99.90;;;;;;5077492;28;20048;-69
2022/06/15 00:05:44;;;;;;;3.20;2.15;;;12.70;99.90;;;;;;5040530;28;20052;-69
2022/06/15 00:08:11;;;;;;;5.50;3.42;;;12.60;99.90;;;;;;5057509;28;20063;-69
2022/06/15 00:10:37;;;;;;;4.38;1.80;;;12.60;99.90;;;;;;5039710;28;20045;-69
2022/06/15 00:13:03;;;;;;;6.55;1.73;;;12.60;99.90;;;;;;5057682;28;20041;-69
2022/06/15 00:15:28;;;;;;;3.35;2.03;;;12.60;99.90;;;;;;5057526;28;20041;-68
2022/06/15 00:17:54;;;;;;;3.78;1.70;;;12.50;99.90;;;;;;5057306;28;20522;-69
2022/06/15 00:20:19;;;;;;;7.07;1.77;;;12.50;99.90;;;;;;5040290;28;20045;-69
2022/06/15 00:22:45;;;;;;;4.97;1.70;;;12.50;99.90;;;;;;5052375;28;20101;-70
2022/06/15 00:25:13;;;;;;;4.35;2.28;;;12.40;99.90;;;;;;5077514;28;20141;-69
2022/06/15 00:27:38;;;;;;;4.35;1.95;;;12.40;99.90;;;;;;5077270;28;20047;-69
2022/06/15 00:30:05;;;;;;;4.75;2.17;;;12.30;99.90;;;;;;5060059;28;20060;-68
2022/06/15 00:32:31;;;;;;;6.32;2.05;;;12.30;99.90;;;;;;5059240;28;20056;-69
2022/06/15 00:34:57;;;;;;;3.83;2.13;;;12.30;99.90;;;;;;5055330;28;20041;-69
2022/06/15 00:37:22;;;;;;;3.78;2.08;;;12.30;99.90;;;;;;5039421;28;20041;-69
2022/06/15 00:39:48;;;;;;;3.80;1.83;;;12.20;99.90;;;;;;5022887;28;20052;-68
2022/06/15 00:42:14;;;;;;;3.83;2.05;;;12.20;99.90;;;;;;5039410;28;20114;-69
2022/06/15 00:44:42;;;;;;;5.00;2.00;;;12.10;99.90;;;;;;5057072;28;20055;-69
2022/06/15 00:47:28;;;;;;;4.43;1.67;;;12.10;99.90;;;;;;5039268;28;20064;-69
2022/06/15 00:50:05;;;;;;;3.40;1.70;;;12.00;99.90;;;;;;5051854;28;20472;-69
2022/06/15 00:52:38;;;;;;;4.88;1.85;;;12.00;99.90;;;;;;5056666;28;20446;-69
2022/06/15 00:55:11;;;;;;;5.10;2.40;;;11.90;99.90;;;;;;5069946;28;20052;-68
2022/06/15 00:57:36;;;;;;;7.90;1.80;;;11.90;99.90;;;;;;5058119;28;20060;-69
2022/06/15 01:00:06;;;;;;;5.13;2.20;;;11.90;99.90;;;;;;5058623;28;20048;-69
2022/06/15 01:02:36;;;;;;;3.65;2.17;;;11.80;99.90;;;;;;5076348;28;20044;-69
2022/06/15 01:05:08;;;;;;;10.80;3.20;;;11.80;99.90;;;;;;5088937;28;20093;-68
2022/06/15 01:07:47;;;;;;;7.00;3.20;;;11.80;99.90;;;;;;5079072;28;20051;-69
2022/06/15 01:10:25;;;;;;;3.97;2.05;;;11.80;99.90;;;;;;5078987;28;20040;-69
2022/06/15 01:13:19;;;;;;;5.15;1.73;;;11.80;99.90;;;;;;5079212;28;20353;-68
2022/06/15 01:16:03;;;;;;;5.82;2.03;;;11.70;99.90;;;;;;5078581;28;20052;-69
2022/06/15 01:18:35;;;;;;;6.03;2.50;;;11.70;99.90;;;;;;5096066;28;20134;-69
2022/06/15 01:21:07;;;;;;;10.10;3.75;;;11.70;99.90;;;;;;5078584;28;20504;-69
2022/06/15 01:23:32;;;;;;;6.05;2.53;;;11.70;99.90;;;;;;5096458;28;20069;-68
2022/06/15 01:26:11;;;;;;;5.90;2.03;;;11.70;99.90;;;;;;5096214;28;20044;-69
2022/06/15 01:28:42;;;;;;;6.78;2.25;;;11.70;99.90;;;;;;5078418;28;20133;-69
2022/06/15 01:31:28;;;;;;;5.20;2.85;;;11.60;99.90;;;;;;5078651;28;20469;-68
2022/06/15 01:34:13;;;;;;;3.95;2.15;;;11.60;99.90;;;;;;5088505;28;20116;-68
2022/06/15 01:36:48;;;;;;;4.97;2.00;;;11.60;99.90;;;;;;5058241;28;20049;-69
2022/06/15 01:39:49;;;;;;;5.35;2.55;;;11.40;99.90;;;;;;5058080;28;20036;-69
2022/06/15 01:42:22;;;;;;;4.18;1.90;;;11.50;99.90;;;;;;5040394;28;20064;-69
2022/06/15 01:44:54;;;;;;;5.67;2.33;;;11.40;99.90;;;;;;5075762;28;20055;-68
2022/06/15 01:47:23;;;;;;;8.00;3.60;;;11.40;99.90;;;;;;5057995;28;20044;-68
2022/06/15 01:49:57;;;;;;;5.60;2.63;;;11.40;99.90;;;;;;5088554;28;20048;-69
2022/06/15 01:52:26;;;;;;;5.90;2.83;;;11.40;99.90;;;;;;5095350;28;20044;-69
2022/06/15 01:54:59;;;;;;;6.30;3.85;;;11.40;99.90;;;;;;5066157;28;20060;-68
2022/06/15 01:57:26;;;;;;;5.18;2.72;;;11.40;99.90;;;;;;5075716;28;20364;-69
2022/06/15 01:59:52;;;;;;;7.57;3.22;;;11.50;99.90;;;;;;5043379;28;20051;-69
2022/06/15 02:02:54;;;;;;;5.72;3.10;;;11.50;99.90;;;;;;5038351;28;20365;-68
2022/06/15 02:05:55;;;;;;;6.50;2.78;;;11.50;99.90;;;;;;5038364;28;20067;-69
2022/06/15 02:08:31;;;;;;;7.32;2.63;;;11.50;99.90;;;;;;5029587;28;20140;-69
2022/06/15 02:11:02;;;;;;;4.75;2.55;;;11.50;99.90;;;;;;5038097;28;20067;-69
2022/06/15 02:14:07;;;;;;;13.20;3.65;;;11.50;99.90;;;;;;5042089;28;20135;-69
2022/06/15 02:16:43;;;;;;;5.97;2.63;;;11.40;99.90;;;;;;5052509;28;20128;-69
2022/06/15 02:19:15;;;;;;;11.40;2.92;;;11.40;99.90;;;;;;5038012;28;20116;-69
2022/06/15 02:21:43;;;;;;;7.35;2.40;;;11.40;99.90;;;;;;5037301;28;20106;-68
2022/06/15 02:24:11;;;;;;;7.32;2.38;;;11.30;99.90;;;;;;5037993;28;20381;-68
2022/06/15 02:26:38;;;;;;;8.35;2.83;;;11.30;99.90;;;;;;5054548;28;20061;-69
2022/06/15 02:29:09;;;;;;;4.93;2.67;;;11.30;99.90;;;;;;5054817;28;20041;-69
2022/06/15 02:31:37;;;;;;;7.68;3.03;;;11.30;99.90;;;;;;5055327;28;20128;-69
2022/06/15 02:34:03;;;;;;;7.80;2.78;;;11.20;99.90;;;;;;5055212;28;20064;-68
2022/06/15 02:36:32;;;;;;;7.57;3.00;;;11.20;99.90;;;;;;5037551;28;20048;-69
2022/06/15 02:38:58;;;;;;;6.05;2.75;;;11.20;99.90;;;;;;5037102;28;20128;-68
2022/06/15 02:41:25;;;;;;;9.00;2.45;;;11.10;99.90;;;;;;5037372;28;20048;-69
2022/06/15 02:43:55;;;;;;;5.05;2.67;;;11.10;99.90;;;;;;5045325;28;20071;-69
2022/06/15 02:46:23;;;;;;;4.70;2.17;;;11.00;99.90;;;;;;5075195;28;20059;-69
2022/06/15 02:48:48;;;;;;;8.43;3.03;;;11.00;99.90;;;;;;5057535;28;20368;-69
2022/06/15 02:51:22;;;;;;;3.80;2.25;;;11.00;99.90;;;;;;5074890;28;20048;-69
2022/06/15 02:53:50;;;;;;;3.83;2.22;;;11.10;99.90;;;;;;5059786;28;21110;-68
2022/06/15 02:56:16;;;;;;;4.68;1.95;;;10.90;99.90;;;;;;5095099;28;20082;-70
2022/06/15 02:58:48;;;;;;;4.97;2.60;;;10.90;99.90;;;;;;5067888;28;20378;-68
2022/06/15 03:01:14;;;;;;;6.72;2.42;;;10.90;99.90;;;;;;5057621;28;20361;-68
2022/06/15 03:03:40;;;;;;;6.30;2.47;;;10.90;99.90;;;;;;5057596;28;20398;-68
2022/06/15 03:06:15;;;;;;;5.72;2.10;;;10.90;99.90;;;;;;5074816;28;20127;-69
2022/06/15 03:08:40;;;;;;;4.18;2.13;;;10.80;99.90;;;;;;5057089;28;20067;-69
2022/06/15 03:11:06;;;;;;;4.97;2.50;;;10.80;99.90;;;;;;5057074;28;20060;-68
2022/06/15 03:13:32;;;;;;;3.88;2.33;;;10.80;99.90;;;;;;5057688;28;20071;-68
2022/06/15 03:15:59;;;;;;;5.15;2.40;;;10.80;99.90;;;;;;5056901;28;20044;-68
2022/06/15 03:18:29;;;;;;;8.18;2.70;;;10.80;99.90;;;;;;5056638;28;20120;-69
2022/06/15 03:20:57;;;;;;;3.67;1.83;;;10.80;99.90;;;;;;5077270;28;20040;-68
2022/06/15 03:23:23;;;;;;;5.72;2.80;;;10.80;99.90;;;;;;5060752;28;20044;-69
2022/06/15 03:25:56;;;;;;;7.65;2.50;;;10.70;99.90;;;;;;5078247;28;20134;-69
2022/06/15 03:28:22;;;;;;;4.85;2.28;;;10.80;99.90;;;;;;5067826;28;20052;-68
2022/06/15 03:30:49;;;;;;;4.10;2.28;;;10.80;99.90;;;;;;5060386;28;20448;-68
2022/06/15 03:33:14;;;;;;;4.20;2.35;;;10.80;99.90;;;;;;5078343;28;20064;-69
2022/06/15 03:35:40;;;;;;;6.97;2.25;;;10.80;99.90;;;;;;5060813;28;20449;-69
2022/06/15 03:38:09;;;;;;;4.50;2.17;;;10.80;99.90;;;;;;5060363;28;20064;-69
2022/06/15 03:40:43;;;;;;;6.63;2.53;;;10.80;99.90;;;;;;5078129;28;20437;-68
2022/06/15 03:43:09;;;;;;;6.38;2.45;;;10.80;99.90;;;;;;5070596;28;20094;-68
2022/06/15 03:45:35;;;;;;;9.55;2.92;;;10.80;99.90;;;;;;5094765;28;20044;-68
2022/06/15 03:48:03;;;;;;;4.10;2.10;;;10.90;99.90;;;;;;5098289;28;20094;-68
2022/06/15 03:50:31;;;;;;;10.25;2.22;;;10.90;99.90;;;;;;5080319;28;20115;-69
2022/06/15 03:52:58;;;;;;;4.72;2.08;;;10.90;99.90;;;;;;5080363;28;20131;-69
2022/06/15 03:55:24;;;;;;;5.43;3.10;;;10.90;99.90;;;;;;5064044;28;20071;-69
2022/06/15 03:57:50;;;;;;;4.78;2.25;;;11.00;99.90;;;;;;5060104;28;20057;-67
2022/06/15 04:00:19;;;;;;;7.00;2.85;;;11.00;99.90;;;;;;5059384;28;20048;-69
2022/06/15 04:02:46;;;;;;;5.55;2.40;;;11.10;99.90;;;;;;5056508;28;20045;-68
2022/06/15 04:05:19;;;;;;;4.55;2.72;;;11.20;99.90;;;;;;5039979;28;20095;-69
2022/06/15 04:10:29;;;;;;;4.75;2.55;;;11.40;99.90;;;;;;5059514;28;20311;-68
2022/06/15 04:12:55;;;;;;;4.35;2.47;;;11.60;99.90;;;;;;5056557;28;20056;-68
2022/06/15 04:15:20;;;;;;;7.90;2.67;;;11.60;99.90;;;;;;5057208;28;20077;-69
2022/06/15 04:17:46;;;;;;;6.63;3.00;;;11.80;99.90;;;;;;5057079;28;20084;-68
2022/06/15 04:20:36;;;;;;;6.20;2.58;;;11.90;99.90;;;;;;5023746;28;20045;-68
2022/06/15 04:23:11;;;;;;;4.85;2.80;;;12.10;99.90;;;;;;5039696;28;20049;-68
2022/06/15 04:25:44;;;;;;;5.68;2.58;;;12.10;99.90;;;;;;5057395;28;20041;-69
2022/06/15 04:28:12;;;;;;;6.25;2.97;;;12.20;99.90;;;;;;5039085;28;20126;-69
2022/06/15 04:30:37;;;;;;;4.57;2.50;;;12.40;99.90;;;;;;5039527;28;20069;-69
2022/06/15 04:33:03;;;;;;;7.07;3.72;;;12.40;99.90;;;;;;5039910;28;20461;-68
2022/06/15 04:35:29;;;;;;;5.30;3.08;;;12.60;99.90;;;;;;5052326;28;20044;-69
2022/06/15 04:37:55;;;;;;;6.88;3.17;;;12.70;99.90;;;;;;5077004;28;20123;-69
2022/06/15 04:40:21;;;;;;;5.32;2.70;;;12.80;99.90;;;;;;5059251;28;20147;-69
2022/06/15 04:42:47;;;;;;;6.40;2.78;;;12.90;99.90;;;;;;5058871;28;20467;-68
2022/06/15 04:45:14;;;;;;;6.53;2.65;;;13.00;99.90;;;;;;5059364;28;20350;-68
2022/06/15 04:47:40;;;;;;;6.72;2.97;;;13.10;99.90;;;;;;5076616;28;20504;-68
2022/06/15 04:50:08;;;;;;;7.93;2.67;;;13.30;99.90;;;;;;5075111;28;20140;-68
2022/06/15 04:52:34;;;;;;;6.35;3.03;;;13.40;99.90;;;;;;5076743;28;20360;-68
2022/06/15 04:55:00;;;;;;;7.55;2.67;;;13.50;99.90;;;;;;5084944;28;20099;-68
2022/06/15 04:57:26;;;;;;;7.45;2.70;;;13.60;99.90;;;;;;5078999;28;20080;-68
2022/06/15 04:59:51;;;;;;;7.20;3.28;;;13.70;99.90;;;;;;5079499;28;20083;-68
2022/06/15 05:02:17;;;;;;;7.53;2.80;;;13.80;99.90;;;;;;5078811;28;20110;-68
2022/06/15 05:04:43;;;;;;;7.25;2.53;;;13.80;99.90;;;;;;5079138;28;20097;-68
2022/06/15 05:07:09;;;;;;;4.78;2.40;;;13.90;99.90;;;;;;5079076;28;20066;-68
2022/06/15 05:09:35;;;;;;;4.72;2.55;;;14.00;99.90;;;;;;5063028;28;20044;-69
2022/06/15 05:12:01;;;;;;;7.10;2.40;;;13.90;99.90;;;;;;5041607;28;20048;-69
2022/06/15 05:14:27;;;;;;;4.97;2.25;;;14.10;99.90;;;;;;5059395;28;20351;-69
2022/06/15 05:16:53;;;;;;;4.55;2.13;;;14.10;99.90;;;;;;5076173;28;20131;-69
2022/06/15 05:19:18;;;;;;;7.10;2.30;;;14.20;99.90;;;;;;5076148;28;20546;-68
2022/06/15 05:21:45;;;;;;;6.47;3.08;;;14.40;99.90;;;;;;5058629;28;20058;-69
2022/06/15 05:24:11;;;;;;;10.65;2.95;;;14.50;99.90;;;;;;5059014;28;20048;-69
2022/06/15 05:26:37;;;;;;;4.40;2.45;;;14.60;99.90;;;;;;5058345;28;20481;-69
2022/06/15 05:29:04;;;;;;;6.00;2.67;;;14.80;99.90;;;;;;5057458;28;20087;-69
2022/06/15 05:31:30;;;;;;;5.07;2.53;;;15.00;99.90;;;;;;5061163;28;20056;-70
2022/06/15 05:33:57;;;;;;;15.00;2.63;;;15.60;99.90;;;;;;5060599;28;20059;-69
2022/06/15 05:36:28;;;;;;;4.93;2.00;;;15.90;99.90;;;;;;5072883;28;20072;-69
2022/06/15 05:38:54;;;;;;;5.25;2.30;;;16.00;99.90;;;;;;5059245;28;20445;-68
2022/06/15 05:41:23;;;;;;;4.35;2.40;;;16.10;99.90;;;;;;5057570;28;20052;-68
2022/06/15 05:43:52;;;;;;;3.65;2.00;;;16.20;99.90;;;;;;5057298;28;20052;-67
2022/06/15 05:46:30;;;;;;;3.83;1.80;;;16.40;99.90;;;;;;5075715;28;20117;-68
2022/06/15 05:48:58;;;;;;;5.60;2.70;;;16.50;99.90;;;;;;5086655;28;20059;-68
2022/06/15 05:51:24;;;;;;;5.97;2.40;;;16.60;99.90;;;;;;5083980;28;20040;-68
2022/06/15 05:53:50;;;;;;;4.28;2.33;;;16.60;99.90;;;;;;5057480;28;20048;-68
2022/06/15 05:56:16;;;;;;;6.18;2.20;;;16.60;99.90;;;;;;5057636;28;20457;-68
2022/06/15 05:58:42;;;;;;;6.00;2.17;;;16.80;99.90;;;;;;5074530;28;20045;-68
2022/06/15 06:01:10;;;;;;;5.47;2.92;;;16.90;99.90;;;;;;5075029;28;20040;-68
2022/06/15 06:03:36;;;;;;;10.43;3.35;;;16.90;99.90;;;;;;5074963;28;20370;-68
2022/06/15 06:06:02;;;;;;;5.15;2.15;;;17.00;99.90;;;;;;5070968;28;20119;-68
2022/06/15 06:08:28;;;;;;;6.45;2.78;;;17.00;99.90;;;;;;5074330;28;20410;-68
2022/06/15 06:10:53;;;;;;;5.80;2.50;;;17.10;99.90;;;;;;5056901;28;20127;-69
2022/06/15 06:13:19;;;;;;;9.13;2.38;;;17.30;99.90;;;;;;5057990;28;20097;-68
2022/06/15 06:15:44;;;;;;;5.18;2.40;;;17.50;99.90;;;;;;5089905;28;20040;-68
2022/06/15 06:18:10;;;;;;;4.50;1.88;;;17.70;99.90;;;;;;5075012;28;20119;-68
2022/06/15 06:20:36;;;;;;;7.28;2.95;;;17.90;99.90;;;;;;5088408;28;20044;-69
2022/06/15 06:23:01;;;;;;;7.53;2.40;;;18.10;99.90;;;;;;5070254;28;20403;-69
2022/06/15 06:25:28;;;;;;;4.75;2.50;;;18.70;99.90;;;;;;5058903;28;20040;-69
2022/06/15 06:27:53;;;;;;;6.78;2.53;;;19.50;99.90;;;;;;5074365;28;20358;-68
2022/06/15 06:30:21;;;;;;;6.57;2.20;;;20.00;99.90;;;;;;5072569;28;20128;-69
2022/06/15 06:32:48;;;;;;;5.95;2.28;;;20.00;99.90;;;;;;5062927;28;20094;-68
2022/06/15 06:35:13;;;;;;;6.22;2.10;;;20.10;99.90;;;;;;5057180;28;20460;-70
2022/06/15 06:37:39;;;;;;;6.00;1.90;;;20.00;99.90;;;;;;5069978;28;20133;-72
2022/06/15 06:40:05;;;;;;;3.65;1.70;;;20.20;99.90;;;;;;5073995;28;20385;-71
2022/06/15 06:42:31;;;;;;;35.00;3.25;;;20.90;99.90;;;;;;5056978;28;20043;-71
2022/06/15 06:44:56;;;;;;;7.25;2.00;;;21.40;99.90;;;;;;5057324;28;20052;-70
2022/06/15 06:47:22;;;;;;;7.30;2.25;;;21.90;99.90;;;;;;5062561;28;20036;-71
2022/06/15 06:49:48;;;;;;;5.20;1.65;;;23.10;99.90;;;;;;5063837;28;20067;-72
2022/06/15 06:52:13;;;;;;;9.48;2.38;;;23.70;99.90;;;;;;5061392;28;20429;-70
2022/06/15 06:54:39;;;;;;;7.40;2.33;;;24.90;99.40;;;;;;5065938;28;20068;-70
2022/06/15 06:57:05;;;;;;;4.05;1.77;;;25.30;97.60;;;;;;5064277;28;20044;-71
2022/06/15 06:59:30;;;;;;;4.43;1.92;;;25.70;96.50;;;;;;5078861;28;20037;-71
2022/06/15 07:01:56;;;;;;;6.38;2.03;;;26.10;95.30;;;;;;5042841;28;20063;-71
2022/06/15 07:04:22;;;;;;;8.10;2.38;;;26.30;94.70;;;;;;5071660;28;20094;-71
2022/06/15 07:06:47;;;;;;;4.50;1.52;;;26.30;93.90;;;;;;5072586;28;20044;-71
2022/06/15 07:09:14;;;;;;;6.43;2.17;;;26.30;93.30;;;;;;5078195;28;20037;-71
2022/06/15 07:11:44;;;;;;;3.78;1.70;;;25.70;93.00;;;;;;5078276;28;20066;-70
2022/06/15 07:14:10;;;;;;;3.88;1.15;;;25.60;92.70;;;;;;5078476;28;20040;-72
2022/06/15 07:16:36;;;;;;;3.45;1.55;;;26.10;92.80;;;;;;5072309;28;20468;-70
2022/06/15 07:19:02;;;;;;;2.60;1.20;;;26.10;93.50;;;;;;5060909;28;20520;-71
2022/06/15 07:21:28;;;;;;;4.28;1.40;;;26.90;93.30;;;;;;5077852;28;20131;-72
2022/06/15 07:23:55;;;;;;;4.13;1.13;;;27.70;91.20;;;;;;5064822;28;20487;-70
2022/06/15 07:26:31;;;;;;;5.50;1.42;;;27.90;90.20;;;;;;5063819;28;20078;-70
2022/06/15 07:28:57;;;;;;;9.80;1.20;;;27.80;89.00;;;;;;5091179;28;20044;-70
2022/06/15 07:31:33;;;;;;;4.10;1.23;;;27.50;90.10;;;;;;5074386;28;20063;-69
2022/06/15 07:34:00;;;;;;;4.50;1.45;;;27.50;89.10;;;;;;5065233;28;20043;-71
2022/06/15 07:36:25;;;;;;;7.95;1.27;;;27.40;89.90;;;;;;5086615;28;20040;-70
2022/06/15 07:38:53;;;;;;;5.00;1.45;;;27.50;90.20;;;;;;5068155;28;20055;-70
2022/06/15 07:41:19;;;;;;;1.70;0.90;;;27.40;89.40;;;;;;5074824;28;20041;-70
2022/06/15 07:43:45;;;;;;;5.65;1.40;;;27.50;88.40;;;;;;5079129;28;20416;-69
2022/06/15 07:46:11;;;;;;;5.03;2.03;;;27.40;89.40;;;;;;5071863;28;20098;-70
2022/06/15 07:51:32;;;;;;;7.32;2.08;;;27.80;88.00;;;;;;5077543;28;20048;-68
2022/06/15 07:53:59;;;;;;;3.38;1.23;;;27.30;87.50;;;;;;5072440;28;20126;-68
2022/06/15 07:56:25;;;;;;;4.97;1.60;;;26.60;87.20;;;;;;5077283;28;20091;-69
2022/06/15 07:58:51;;;;;;;3.80;1.20;;;26.70;86.90;;;;;;5048937;28;20433;-69
2022/06/15 08:01:17;;;;;;;11.60;1.80;;;26.60;88.40;;;;;;5066012;28;20052;-69
2022/06/15 08:03:43;;;;;;;4.65;1.05;;;26.10;89.80;;;;;;5055377;28;20059;-69
2022/06/15 08:06:09;;;;;;;4.00;1.60;;;26.20;90.10;;;;;;5099627;28;20097;-68
2022/06/15 08:08:34;;;;;;;3.85;1.17;;;26.40;88.30;;;;;;5084717;28;20086;-69
2022/06/15 08:11:00;;;;;;;5.25;1.50;;;26.40;89.00;;;;;;5077583;28;20032;-68
2022/06/15 08:13:26;;;;;;;6.22;1.52;;;26.50;88.40;;;;;;5079916;28;20441;-69
2022/06/15 08:15:52;;;;;;;5.93;1.48;;;26.60;88.10;;;;;;5080913;28;20066;-70
2022/06/15 08:18:22;;;;;;;2.38;1.30;;;27.10;87.60;;;;;;5078364;28;20063;-70
2022/06/15 08:20:53;;;;;;;2.40;1.08;;;26.50;85.10;;;;;;5072729;28;20040;-70
2022/06/15 08:23:22;;;;;;;2.60;1.15;;;26.30;85.60;;;;;;5096290;28;20065;-70
2022/06/15 08:25:51;;;;;;;4.25;1.08;;;26.10;84.80;;;;;;5104807;28;20039;-70
2022/06/15 08:28:20;;;;;;;3.70;1.58;;;25.60;84.90;;;;;;5117580;28;20051;-71
2022/06/15 08:30:47;;;;;;;3.40;1.00;;;25.80;86.10;;;;;;5117809;28;20055;-70
2022/06/15 08:33:15;;;;;;;6.13;1.25;;;26.50;83.40;;;;;;5081206;28;20036;-70
2022/06/15 08:35:41;;;;;;;2.75;0.90;;;26.60;81.10;;;;;;5097389;28;20115;-70
2022/06/15 08:38:11;;;;;;;5.47;1.17;;;26.70;82.00;;;;;;5079374;28;20071;-70
2022/06/15 08:40:51;;;;;;;6.38;1.10;;;26.80;82.50;;;;;;5079186;28;20101;-71
2022/06/15 08:43:20;;;;;;;3.50;1.27;;;27.10;82.10;;;;;;5079337;28;20047;-70
2022/06/15 08:45:52;;;;;;;4.68;0.93;;;27.10;79.20;;;;;;5075102;28;20044;-71
2022/06/15 08:48:49;;;;;;;2.70;1.33;;;27.20;80.50;;;;;;5059101;28;20450;-71
2022/06/15 08:51:34;;;;;;;2.13;1.08;;;27.00;78.30;;;;;;5059560;28;20048;-71
2022/06/15 08:54:10;;;;;;;3.95;1.15;;;27.00;78.40;;;;;;5076307;28;20445;-70
2022/06/15 08:56:43;;;;;;;4.95;1.45;;;27.10;78.40;;;;;;5059230;28;20149;-70
2022/06/15 08:59:27;;;;;;;3.40;1.00;;;27.50;78.10;;;;;;5059150;28;20044;-71
2022/06/15 09:02:23;;;;;;;4.28;1.00;;;27.80;77.90;;;;;;5058947;28;20060;-70
2022/06/15 09:05:06;;;;;;;5.72;0.85;;;27.80;76.10;;;;;;5058874;28;20056;-71
2022/06/15 09:07:46;;;;;;;3.22;0.98;;;27.80;76.10;;;;;;5059014;28;20087;-70
2022/06/15 09:10:29;;;;;;;2.42;0.90;;;27.90;76.50;;;;;;5058872;28;20472;-70
2022/06/15 09:13:16;;;;;;;1.52;0.80;;;27.70;77.60;;;;;;5058980;28;20044;-71
2022/06/15 09:15:54;;;;;;;4.38;1.23;;;27.20;80.80;;;;;;5082780;28;20051;-71
2022/06/15 09:18:30;;;;;;;4.18;1.05;;;27.20;78.40;;;;;;5061390;28;20127;-70
2022/06/15 09:21:10;;;;;;;3.00;0.90;;;27.10;78.80;;;;;;5096610;28;20044;-70
2022/06/15 09:23:59;;;;;;;1.55;0.73;;;26.60;78.10;;;;;;5078764;28;20467;-71
2022/06/15 09:26:34;;;;;;;5.15;1.08;;;25.80;81.90;;;;;;5078450;28;20059;-70
2022/06/15 09:29:10;;;;;;;4.03;1.30;;;25.50;79.90;;;;;;5096129;28;20048;-70
2022/06/15 09:31:40;;;;;;;5.70;1.00;;;25.30;80.10;;;;;;5082191;28;20051;-70
2022/06/15 09:34:10;;;;;;;2.35;1.00;;;25.20;81.40;;;;;;5096089;28;20476;-72
2022/06/15 09:36:53;;;;;;;4.07;1.30;;;25.00;80.90;;;;;;5078879;28;20349;-70
2022/06/15 09:39:19;;;;;;;2.47;0.93;;;24.80;78.40;;;;;;5079065;28;20364;-70
2022/06/15 09:42:04;;;;;;;2.55;1.20;;;24.50;80.20;;;;;;5078113;28;20043;-71
2022/06/15 09:44:47;;;;;;;3.20;1.45;;;24.10;80.20;;;;;;5078281;28;20048;-70
2022/06/15 09:47:13;;;;;;;6.95;1.23;;;23.80;81.00;;;;;;5076453;28;20468;-70
2022/06/15 09:49:56;;;;;;;4.28;1.42;;;23.70;83.00;;;;;;5058158;28;20048;-70
2022/06/15 09:52:41;;;;;;;;;;;23.90;82.60;;;;;;5075856;28;20055;-70
2022/06/15 09:55:18;;;;;;;2.70;1.35;;;23.80;78.40;;;;;;5075891;28;20027;-70
2022/06/15 09:57:46;;;;;;;3.30;1.20;;;23.70;80.20;;;;;;5058093;28;20057;-70
2022/06/15 10:00:14;;;;;;;4.00;1.40;;;23.60;82.90;;;;;;5062653;28;20153;-70
2022/06/15 10:02:44;;;;;;;2.63;1.10;;;23.60;83.50;;;;;;5069238;28;20129;-70
2022/06/15 10:05:21;;;;;;;4.00;1.10;;;23.50;83.60;;;;;;5041692;28;20052;-70
2022/06/15 10:07:47;;;;;;;5.07;1.23;;;23.20;85.10;;;;;;5075605;28;20052;-71
2022/06/15 10:10:28;;;;;;;4.70;2.35;;;22.90;85.90;;;;;;5057825;28;20044;-70
2022/06/15 10:12:58;;;;;;;3.05;1.15;;;22.80;85.70;;;;;;5075597;28;20036;-70
2022/06/15 10:15:29;;;;;;;4.93;1.20;;;22.50;85.80;;;;;;5061454;28;20127;-70
2022/06/15 10:18:00;;;;;;;5.07;1.30;;;22.90;87.50;;;;;;5077782;28;20113;-70
2022/06/15 10:20:36;;;;;;;6.88;1.45;;;22.90;85.60;;;;;;5095445;28;20044;-70
2022/06/15 10:23:06;;;;;;;7.60;1.33;;;22.50;85.30;;;;;;5077213;28;20500;-70
2022/06/15 10:25:36;;;;;;;3.15;1.40;;;22.60;86.20;;;;;;5095046;28;20506;-70
2022/06/15 10:28:16;;;;;;;2.75;1.23;;;22.70;87.20;;;;;;5077126;28;20044;-70
2022/06/15 10:31:01;;;;;;;2.38;0.90;;;22.90;88.20;;;;;;5072792;28;20048;-70
2022/06/15 10:33:47;;;;;;;3.75;1.40;;;23.20;86.20;;;;;;5068649;28;20052;-70
2022/06/15 10:36:21;;;;;;;2.13;1.33;;;23.60;85.40;;;;;;5057642;28;20090;-71
2022/06/15 10:38:54;;;;;;;5.75;1.67;;;23.50;84.10;;;;;;5057370;28;20044;-70
2022/06/15 10:41:46;;;;;;;5.97;1.63;;;23.90;83.70;;;;;;5057057;28;20041;-71
2022/06/15 10:44:27;;;;;;;2.95;1.30;;;23.80;84.20;;;;;;5058039;28;20129;-70
2022/06/15 10:46:59;;;;;;;3.17;1.30;;;24.00;83.50;;;;;;5057591;28;20110;-71
2022/06/15 10:49:29;;;;;;;4.68;1.70;;;23.90;82.90;;;;;;5057104;28;20053;-70
2022/06/15 10:51:55;;;;;;;2.63;1.08;;;23.80;83.10;;;;;;5056816;28;20103;-70
2022/06/15 11:02:06;;;;;;;2.13;1.10;;;24.10;84.60;;;;;;5051847;28;20056;-70
2022/06/15 11:03:21;;;;;;;7.15;1.23;;;24.40;81.70;;;;;;5074023;28;20044;-70
2022/06/15 11:05:50;;;;;;;3.70;1.30;;;24.40;80.30;;;;;;5057614;28;20128;-70
2022/06/15 11:08:19;;;;;;;4.70;1.08;;;24.40;81.30;;;;;;5057230;28;20041;-70
2022/06/15 11:10:52;;;;;;;3.40;1.10;;;24.00;81.50;;;;;;5074565;28;20052;-70
2022/06/15 11:13:17;;;;;;;;;;;23.80;82.80;;;;;;5058137;28;20075;-70
2022/06/15 11:18:37;;;;;;;2.65;1.30;;;23.20;82.90;;;;;;5054949;28;20461;-70
2022/06/15 11:21:12;;;;;;;4.20;1.70;;;22.80;83.80;;;;;;5053305;28;20469;-69
2022/06/15 11:24:12;;;;;;;2.33;1.33;;;22.60;84.40;;;;;;5037313;28;20303;-70
2022/06/15 11:26:57;;;;;;;3.55;1.40;;;22.50;84.30;;;;;;5023319;28;20061;-70
2022/06/15 11:29:45;;;;;;;2.80;1.50;;;22.50;85.00;;;;;;5036919;28;20053;-70
2022/06/15 11:32:32;;;;;;;1.70;1.08;;;22.20;86.60;;;;;;5052995;28;20143;-70
2022/06/15 11:35:13;;;;;;;3.88;1.45;;;22.50;87.50;;;;;;5052865;28;20365;-70
2022/06/15 11:37:41;;;;;;;5.22;1.88;;;22.90;85.10;;;;;;5073921;28;20503;-70
2022/06/15 11:40:35;;;;;;;3.83;1.55;;;22.90;84.30;;;;;;5056728;28;20056;-70
2022/06/15 11:43:09;;;;;;;5.82;1.60;;;22.90;84.30;;;;;;5033250;28;20064;-70
2022/06/15 11:46:04;;;;;;;2.92;1.58;;;22.60;85.40;;;;;;5078264;28;20448;-70
2022/06/15 11:48:57;;;;;;;2.90;1.25;;;22.60;85.40;;;;;;5055750;28;20127;-70
2022/06/15 11:51:31;;;;;;;3.90;1.80;;;22.60;86.10;;;;;;5040126;28;20073;-71
2022/06/15 11:54:30;;;;;;;5.90;1.98;;;22.80;87.00;;;;;;5059653;28;20041;-71
2022/06/15 11:57:13;;;;;;;3.10;1.70;;;23.10;85.10;;;;;;5077687;28;20056;-70
2022/06/15 11:59:48;;;;;;;7.43;1.85;;;23.10;84.80;;;;;;5060855;28;20048;-70
2022/06/15 12:02:41;;;;;;;2.38;1.27;;;23.40;84.70;;;;;;5077813;28;20044;-71
2022/06/15 12:05:29;;;;;;;2.05;1.00;;;23.30;83.30;;;;;;5059735;28;20534;-70
2022/06/15 12:08:28;;;;;;;3.55;1.20;;;23.50;83.80;;;;;;5060395;28;20079;-70
2022/06/15 12:12:37;;;;;;;5.68;1.77;;;23.40;83.60;;;;;;5077882;28;20087;-71
2022/06/15 12:14:12;;;;;;;4.22;1.55;;;23.00;84.10;;;;;;5059707;28;20131;-70
2022/06/15 12:16:53;;;;;;;2.30;1.13;;;22.90;85.20;;;;;;5059799;28;20059;-70
2022/06/15 12:19:32;;;;;;;3.13;1.38;;;23.00;86.90;;;;;;5077475;28;20052;-70
2022/06/15 12:22:05;;;;;;;3.53;1.45;;;23.00;86.10;;;;;;5059613;28;20048;-70
2022/06/15 12:24:41;;;;;;;;;;;23.00;85.50;;;;;;5077798;28;20049;-70
2022/06/15 12:27:21;;;;;;;3.63;1.40;;;23.00;85.80;;;;;;5060181;28;19932;-70
2022/06/15 12:30:02;;;;;;;5.20;1.40;;;23.20;84.90;;;;;;5077442;28;20040;-70
2022/06/15 12:32:51;;;;;;;4.80;2.03;;;23.30;85.70;;;;;;5060209;28;20047;-70
2022/06/15 12:35:27;;;;;;;3.80;2.03;;;23.50;85.40;;;;;;5076754;28;20464;-71
2022/06/15 12:38:01;;;;;;;4.07;1.38;;;23.60;85.00;;;;;;5059955;28;20094;-70
2022/06/15 12:40:40;;;;;;;2.63;1.17;;;23.40;84.20;;;;;;5076870;28;20044;-70
2022/06/15 12:43:26;;;;;;;2.53;1.60;;;23.50;82.50;;;;;;5076970;28;20088;-70
2022/06/15 12:46:01;;;;;;;4.40;1.40;;;23.60;83.70;;;;;;5077240;28;20063;-70
2022/06/15 12:49:04;;;;;;;5.30;1.90;;;23.80;85.80;;;;;;5071812;28;20062;-70
2022/06/15 12:51:44;;;;;;;3.95;1.38;;;24.10;86.20;;;;;;5096847;28;20113;-71
2022/06/15 12:54:35;;;;;;;3.60;1.85;;;24.00;86.30;;;;;;5096988;28;20410;-70
2022/06/15 12:57:24;;;;;;;3.42;1.60;;;23.80;85.40;;;;;;5096998;28;20060;-70
2022/06/15 13:00:05;;;;;;;3.53;1.70;;;24.00;88.20;;;;;;5079487;28;20127;-71
2022/06/15 13:02:46;;;;;;;3.97;1.40;;;24.10;86.00;;;;;;5074815;28;20350;-70
2022/06/15 13:05:25;;;;;;;6.88;2.45;;;24.30;87.50;;;;;;5058549;28;20072;-70
2022/06/15 13:08:25;;;;;;;6.10;1.88;;;24.20;85.60;;;;;;5058701;28;20040;-70
2022/06/15 13:10:53;;;;;;;5.68;1.60;;;23.90;85.70;;;;;;5058696;28;20056;-71
2022/06/15 13:13:30;;;;;;;4.70;2.05;;;23.50;86.30;;;;;;5059214;28;20099;-70
2022/06/15 13:15:59;;;;;;;2.97;1.70;;;23.60;86.40;;;;;;5058753;28;20048;-71
2022/06/15 13:18:54;;;;;;;2.90;1.30;;;23.40;85.90;;;;;;5076092;28;20040;-70
2022/06/15 13:21:25;;;;;;;12.05;1.98;;;23.10;88.80;;;;;;5059485;28;20106;-70
2022/06/15 13:23:57;;;;;;;4.90;1.45;;;23.30;87.00;;;;;;5058988;28;20076;-70
2022/06/15 13:26:36;;;;;;;4.13;1.55;;;23.50;88.00;;;;;;5058347;28;20049;-71
2022/06/15 13:29:03;;;;;;;4.65;1.77;;;23.40;86.60;;;;;;5058106;28;20055;-70